createdAt,value
2018-10-09T00:00:58.901Z,988.96
2018-10-09T00:01:58.876Z,988.97
2018-10-09T00:02:58.828Z,988.99
2018-10-09T00:03:58.789Z,988.90
2018-10-09T00:04:58.747Z,988.90
2018-10-09T00:05:58.708Z,988.86
2018-10-09T00:06:58.671Z,988.87
2018-10-09T00:07:58.634Z,988.84
2018-10-09T00:08:58.597Z,988.84
2018-10-09T00:09:58.564Z,988.84
2018-10-09T00:10:58.520Z,988.83
2018-10-09T00:11:58.479Z,988.81
2018-10-09T00:12:58.443Z,988.80
2018-10-09T00:13:58.402Z,988.77
2018-10-09T00:14:58.363Z,988.75
2018-10-09T00:15:58.323Z,988.69
2018-10-09T00:16:58.288Z,988.68
2018-10-09T00:17:58.252Z,988.64
2018-10-09T00:18:58.205Z,988.62
2018-10-09T00:19:58.169Z,988.57
2018-10-09T00:20:58.133Z,988.58
2018-10-09T00:21:58.106Z,988.56
2018-10-09T00:22:58.061Z,988.57
2018-10-09T00:23:58.018Z,988.54
2018-10-09T00:24:57.976Z,988.52
2018-10-09T00:25:57.983Z,988.48
2018-10-09T00:26:57.897Z,988.46
2018-10-09T00:27:57.859Z,988.43
2018-10-09T00:28:57.822Z,988.45
2018-10-09T00:29:57.786Z,988.40
2018-10-09T00:30:57.747Z,988.38
2018-10-09T00:31:57.711Z,988.39
2018-10-09T00:32:57.666Z,988.33
2018-10-09T00:33:57.625Z,988.34
2018-10-09T00:34:57.593Z,988.30
2018-10-09T00:35:57.552Z,988.31
2018-10-09T00:36:57.510Z,988.31
2018-10-09T00:37:57.471Z,988.27
2018-10-09T00:38:57.434Z,988.26
2018-10-09T00:39:57.402Z,988.28
2018-10-09T00:40:57.363Z,988.25
2018-10-09T00:41:57.322Z,988.26
2018-10-09T00:42:57.283Z,988.30
2018-10-09T00:43:57.250Z,988.28
2018-10-09T00:44:57.201Z,988.26
2018-10-09T00:45:57.161Z,988.22
2018-10-09T00:46:57.126Z,988.24
2018-10-09T00:47:57.089Z,988.21
2018-10-09T00:48:57.052Z,988.19
2018-10-09T00:49:57.017Z,988.18
2018-10-09T00:50:56.975Z,988.14
2018-10-09T00:51:56.932Z,988.13
2018-10-09T00:52:56.906Z,988.13
2018-10-09T00:53:56.859Z,988.12
2018-10-09T00:54:56.821Z,988.14
2018-10-09T00:55:56.780Z,988.12
2018-10-09T00:56:56.738Z,988.08
2018-10-09T00:57:56.698Z,988.05
2018-10-09T00:58:56.661Z,988.04
2018-10-09T00:59:56.628Z,988.02
2018-10-09T01:00:56.585Z,988.01
2018-10-09T01:01:56.549Z,987.96
2018-10-09T01:02:56.512Z,987.92
2018-10-09T01:03:56.474Z,987.91
2018-10-09T01:04:56.431Z,987.86
2018-10-09T01:05:56.390Z,987.85
2018-10-09T01:06:56.357Z,987.90
2018-10-09T01:07:56.316Z,987.91
2018-10-09T01:08:56.281Z,987.88
2018-10-09T01:09:56.235Z,987.87
2018-10-09T01:10:56.195Z,987.85
2018-10-09T01:11:56.156Z,987.86
2018-10-09T01:12:56.122Z,987.87
2018-10-09T01:13:56.088Z,987.84
2018-10-09T01:14:56.048Z,987.82
2018-10-09T01:15:56.004Z,987.79
2018-10-09T01:16:55.963Z,987.82
2018-10-09T01:17:55.922Z,987.75
2018-10-09T01:18:55.886Z,987.78
2018-10-09T01:19:55.847Z,987.77
2018-10-09T01:20:55.813Z,987.76
2018-10-09T01:21:55.772Z,987.78
2018-10-09T01:22:55.727Z,987.76
2018-10-09T01:23:55.690Z,987.73
2018-10-09T01:24:55.657Z,987.76
2018-10-09T01:25:55.616Z,987.72
2018-10-09T01:26:55.580Z,987.72
2018-10-09T01:27:55.539Z,987.71
2018-10-09T01:28:55.501Z,987.68
2018-10-09T01:29:55.456Z,987.69
2018-10-09T01:30:55.417Z,987.65
2018-10-09T01:31:55.379Z,987.68
2018-10-09T01:32:55.345Z,987.70
2018-10-09T01:33:55.308Z,987.76
2018-10-09T01:34:55.266Z,987.78
2018-10-09T01:35:55.229Z,987.79
2018-10-09T01:36:55.185Z,987.82
2018-10-09T01:37:55.154Z,987.79
2018-10-09T01:38:55.112Z,987.86
2018-10-09T01:39:55.071Z,987.86
2018-10-09T01:40:55.033Z,987.83
2018-10-09T01:41:54.989Z,987.90
2018-10-09T01:42:54.957Z,987.88
2018-10-09T01:43:54.914Z,987.89
2018-10-09T01:44:54.876Z,987.90
2018-10-09T01:45:54.839Z,987.93
2018-10-09T01:46:54.825Z,987.93
2018-10-09T01:47:54.762Z,987.95
2018-10-09T01:48:54.720Z,987.93
2018-10-09T01:49:54.678Z,987.89
2018-10-09T01:50:54.640Z,987.90
2018-10-09T01:51:54.603Z,987.87
2018-10-09T01:52:54.573Z,987.87
2018-10-09T01:53:54.527Z,987.89
2018-10-09T01:54:54.485Z,987.89
2018-10-09T01:55:54.458Z,987.88
2018-10-09T01:56:54.410Z,987.86
2018-10-09T01:57:54.376Z,987.90
2018-10-09T01:58:54.334Z,987.90
2018-10-09T01:59:54.295Z,987.90
2018-10-09T02:00:54.250Z,987.89
2018-10-09T02:01:54.214Z,987.91
2018-10-09T02:02:54.173Z,987.92
2018-10-09T02:03:54.135Z,987.88
2018-10-09T02:04:54.110Z,987.89
2018-10-09T02:05:54.062Z,987.91
2018-10-09T02:06:54.023Z,987.88
2018-10-09T02:07:53.983Z,987.89
2018-10-09T02:08:53.939Z,987.92
2018-10-09T02:09:53.898Z,987.96
2018-10-09T02:10:53.866Z,987.95
2018-10-09T02:11:53.828Z,988.00
2018-10-09T02:12:53.788Z,987.98
2018-10-09T02:13:53.749Z,987.98
2018-10-09T02:14:53.704Z,988.00
2018-10-09T02:15:53.668Z,988.01
2018-10-09T02:16:53.630Z,987.96
2018-10-09T02:17:53.594Z,987.95
2018-10-09T02:18:53.554Z,987.97
2018-10-09T02:19:53.514Z,987.99
2018-10-09T02:20:53.473Z,987.97
2018-10-09T02:21:53.432Z,987.97
2018-10-09T02:22:53.395Z,987.94
2018-10-09T02:23:53.356Z,987.92
2018-10-09T02:24:53.317Z,987.92
2018-10-09T02:25:53.288Z,987.92
2018-10-09T02:26:53.237Z,987.94
2018-10-09T02:27:53.205Z,987.94
2018-10-09T02:28:53.189Z,987.94
2018-10-09T02:29:53.128Z,987.94
2018-10-09T02:30:53.089Z,987.96
2018-10-09T02:31:53.052Z,987.95
2018-10-09T02:32:53.005Z,987.96
2018-10-09T02:33:52.964Z,988.01
2018-10-09T02:34:52.928Z,987.98
2018-10-09T02:35:52.891Z,988.02
2018-10-09T02:36:52.850Z,988.05
2018-10-09T02:37:52.814Z,988.02
2018-10-09T02:38:52.777Z,988.05
2018-10-09T02:39:52.737Z,988.04
2018-10-09T02:40:52.692Z,988.03
2018-10-09T02:41:52.651Z,988.00
2018-10-09T02:42:52.620Z,987.98
2018-10-09T02:43:52.579Z,987.99
2018-10-09T02:44:52.537Z,987.89
2018-10-09T02:45:52.495Z,987.93
2018-10-09T02:46:52.459Z,987.90
2018-10-09T02:47:52.420Z,987.88
2018-10-09T02:48:52.382Z,987.89
2018-10-09T02:49:52.353Z,987.91
2018-10-09T02:50:52.306Z,987.91
2018-10-09T02:51:52.270Z,987.88
2018-10-09T02:52:52.224Z,987.92
2018-10-09T02:53:52.187Z,987.96
2018-10-09T02:54:52.144Z,987.94
2018-10-09T02:55:52.110Z,987.92
2018-10-09T02:56:52.078Z,987.91
2018-10-09T02:57:52.035Z,987.88
2018-10-09T02:58:51.989Z,987.86
2018-10-09T02:59:51.952Z,987.87
2018-10-09T03:00:51.913Z,987.85
2018-10-09T03:01:51.881Z,987.86
2018-10-09T03:02:51.839Z,987.85
2018-10-09T03:03:51.799Z,987.82
2018-10-09T03:04:51.754Z,987.84
2018-10-09T03:05:51.715Z,987.80
2018-10-09T03:06:51.680Z,987.77
2018-10-09T03:07:51.641Z,987.80
2018-10-09T03:08:51.600Z,987.76
2018-10-09T03:09:51.567Z,987.72
2018-10-09T03:16:09.958Z,987.73
2018-10-09T03:17:00.845Z,987.69
2018-10-09T03:18:00.805Z,987.71
2018-10-09T03:19:00.765Z,987.68
2018-10-09T03:20:00.732Z,987.67
2018-10-09T03:21:00.688Z,987.67
2018-10-09T03:22:00.656Z,987.65
2018-10-09T03:23:00.607Z,987.61
2018-10-09T03:24:00.572Z,987.60
2018-10-09T03:25:00.530Z,987.62
2018-10-09T03:26:00.495Z,987.54
2018-10-09T03:27:00.458Z,987.53
2018-10-09T03:28:00.415Z,987.49
2018-10-09T03:29:00.380Z,987.50
2018-10-09T03:30:00.334Z,987.46
2018-10-09T03:31:00.304Z,987.45
2018-10-09T03:32:00.258Z,987.46
2018-10-09T03:33:00.220Z,987.46
2018-10-09T03:34:00.183Z,987.46
2018-10-09T03:35:00.145Z,987.47
2018-10-09T03:36:00.105Z,987.41
2018-10-09T03:37:00.061Z,987.43
2018-10-09T03:38:00.023Z,987.40
2018-10-09T03:38:59.982Z,987.41
2018-10-09T03:39:59.949Z,987.35
2018-10-09T03:40:59.917Z,987.33
2018-10-09T03:41:59.873Z,987.30
2018-10-09T03:42:59.827Z,987.30
2018-10-09T03:43:59.791Z,987.29
2018-10-09T03:44:59.759Z,987.27
2018-10-09T03:45:59.722Z,987.28
2018-10-09T03:46:59.678Z,987.24
2018-10-09T03:47:59.635Z,987.25
2018-10-09T03:48:59.597Z,987.25
2018-10-09T03:49:59.556Z,987.23
2018-10-09T03:50:59.572Z,987.23
2018-10-09T03:51:59.477Z,987.22
2018-10-09T03:52:59.449Z,987.24
2018-10-09T03:53:59.407Z,987.22
2018-10-09T04:07:13.961Z,987.02
2018-10-09T04:08:13.894Z,987.03
2018-10-09T04:09:13.919Z,987.07
2018-10-09T04:10:13.790Z,987.07
2018-10-09T04:11:13.736Z,987.07
2018-10-09T04:12:13.699Z,987.06
2018-10-09T04:13:13.651Z,987.07
2018-10-09T04:14:13.615Z,987.06
2018-10-09T04:15:13.580Z,987.10
2018-10-09T04:16:13.531Z,987.09
2018-10-09T04:17:13.493Z,987.11
2018-10-09T04:18:13.464Z,987.14
2018-10-09T04:19:13.414Z,987.13
2018-10-09T04:20:13.373Z,987.13
2018-10-09T04:21:13.331Z,987.12
2018-10-09T04:22:13.286Z,987.16
2018-10-09T04:23:13.252Z,987.11
2018-10-09T04:24:13.214Z,987.10
2018-10-09T04:25:13.200Z,987.06
2018-10-09T04:26:13.135Z,987.03
2018-10-09T04:27:13.096Z,986.98
2018-10-09T04:28:13.053Z,987.00
2018-10-09T04:29:13.017Z,987.01
2018-10-09T04:30:12.974Z,986.98
2018-10-09T04:31:12.934Z,986.99
2018-10-09T04:32:12.896Z,987.02
2018-10-09T04:33:12.867Z,987.07
2018-10-09T04:34:12.820Z,987.06
2018-10-09T04:35:12.800Z,987.05
2018-10-09T04:36:12.749Z,987.02
2018-10-09T04:37:12.700Z,987.04
2018-10-09T04:38:12.663Z,987.07
2018-10-09T04:39:12.629Z,987.01
2018-10-09T04:40:12.579Z,987.03
2018-10-09T04:41:12.549Z,987.03
2018-10-09T04:42:12.499Z,987.00
2018-10-09T04:43:12.464Z,986.99
2018-10-09T04:44:12.426Z,986.98
2018-10-09T04:45:12.383Z,986.97
2018-10-09T04:46:12.352Z,986.97
2018-10-09T04:47:12.305Z,986.90
2018-10-09T04:48:12.262Z,986.94
2018-10-09T04:49:12.227Z,986.91
2018-10-09T04:50:12.192Z,986.93
2018-10-09T04:51:12.147Z,986.93
2018-10-09T04:52:12.113Z,986.94
2018-10-09T04:53:12.136Z,986.93
2018-10-09T04:54:12.028Z,986.97
2018-10-09T04:55:11.991Z,986.96
2018-10-09T04:56:11.950Z,986.99
2018-10-09T04:57:11.911Z,986.99
2018-10-09T04:58:11.875Z,987.00
2018-10-09T04:59:11.833Z,987.00
2018-10-09T05:00:11.797Z,986.99
2018-10-09T05:01:11.760Z,986.99
2018-10-09T05:02:11.717Z,987.00
2018-10-09T05:03:11.676Z,986.99
2018-10-09T05:04:11.641Z,987.01
2018-10-09T05:05:11.608Z,986.99
2018-10-09T05:06:11.562Z,987.00
2018-10-09T05:07:11.524Z,986.99
2018-10-09T05:08:11.482Z,987.02
2018-10-09T05:09:11.459Z,986.99
2018-10-09T05:10:11.410Z,987.04
2018-10-09T05:11:11.371Z,987.05
2018-10-09T05:12:11.322Z,987.01
2018-10-09T05:13:11.284Z,987.00
2018-10-09T05:14:11.251Z,987.01
2018-10-09T05:15:11.212Z,987.00
2018-10-09T05:16:11.179Z,986.96
2018-10-09T05:17:11.164Z,986.95
2018-10-09T05:18:11.091Z,986.99
2018-10-09T05:19:11.055Z,987.00
2018-10-09T05:20:11.017Z,987.03
2018-10-09T05:21:10.979Z,987.01
2018-10-09T05:22:10.936Z,987.00
2018-10-09T05:23:10.926Z,987.00
2018-10-09T05:24:10.855Z,987.01
2018-10-09T05:25:10.820Z,986.98
2018-10-09T05:26:10.782Z,987.02
2018-10-09T05:27:10.745Z,987.00
2018-10-09T05:28:10.705Z,987.01
2018-10-09T05:29:10.666Z,987.00
2018-10-09T05:30:10.625Z,987.01
2018-10-09T05:31:10.599Z,987.01
2018-10-09T05:32:10.546Z,987.03
2018-10-09T05:33:10.509Z,987.02
2018-10-09T05:34:10.473Z,987.03
2018-10-09T05:35:10.437Z,987.07
2018-10-09T05:36:10.390Z,987.08
2018-10-09T05:37:10.360Z,987.09
2018-10-09T05:38:10.316Z,987.11
2018-10-09T05:39:10.283Z,987.11
2018-10-09T05:40:10.242Z,987.14
2018-10-09T05:41:10.202Z,987.15
2018-10-09T05:42:10.160Z,987.15
2018-10-09T05:43:10.118Z,987.14
2018-10-09T05:44:10.088Z,987.18
2018-10-09T05:45:10.050Z,987.18
2018-10-09T05:46:10.006Z,987.19
2018-10-09T05:47:09.969Z,987.19
2018-10-09T05:48:09.934Z,987.17
2018-10-09T05:49:09.892Z,987.20
2018-10-09T05:50:09.851Z,987.18
2018-10-09T05:51:09.808Z,987.18
2018-10-09T05:52:09.777Z,987.17
2018-10-09T05:53:09.740Z,987.18
2018-10-09T05:54:09.697Z,987.15
2018-10-09T05:55:09.656Z,987.19
2018-10-09T05:56:09.617Z,987.16
2018-10-09T05:57:09.581Z,987.21
2018-10-09T05:58:09.568Z,987.24
2018-10-09T05:59:09.509Z,987.23
2018-10-09T06:00:09.468Z,987.26
2018-10-09T06:01:09.428Z,987.28
2018-10-09T06:02:09.392Z,987.32
2018-10-09T06:03:09.348Z,987.32
2018-10-09T06:04:09.309Z,987.36
2018-10-09T06:05:09.325Z,987.36
2018-10-09T06:06:09.240Z,987.36
2018-10-09T06:07:09.206Z,987.36
2018-10-09T06:08:09.154Z,987.32
2018-10-09T06:09:09.123Z,987.36
2018-10-09T06:10:09.084Z,987.36
2018-10-09T06:11:09.047Z,987.42
2018-10-09T06:12:09.009Z,987.40
2018-10-09T06:13:08.972Z,987.39
2018-10-09T06:14:08.927Z,987.40
2018-10-09T06:15:08.887Z,987.43
2018-10-09T06:16:08.860Z,987.48
2018-10-09T06:17:08.811Z,987.45
2018-10-09T06:18:08.779Z,987.55
2018-10-09T06:19:08.739Z,987.54
2018-10-09T06:20:08.704Z,987.58
2018-10-09T06:21:08.659Z,987.58
2018-10-09T06:22:08.629Z,987.59
2018-10-09T06:23:08.581Z,987.64
2018-10-09T06:24:08.549Z,987.65
2018-10-09T06:25:08.517Z,987.65
2018-10-09T06:26:08.471Z,987.64
2018-10-09T06:27:08.424Z,987.66
2018-10-09T06:28:08.490Z,987.69
2018-10-09T06:29:08.354Z,987.69
2018-10-09T06:30:08.313Z,987.72
2018-10-09T06:31:08.278Z,987.73
2018-10-09T06:32:08.246Z,987.77
2018-10-09T06:33:08.202Z,987.78
2018-10-09T06:34:08.243Z,987.80
2018-10-09T06:35:08.125Z,987.80
2018-10-09T06:36:08.081Z,987.83
2018-10-09T06:37:08.075Z,987.82
2018-10-09T06:38:08.010Z,987.83
2018-10-09T06:39:07.975Z,987.90
2018-10-09T06:40:07.929Z,987.95
2018-10-09T06:41:07.894Z,987.97
2018-10-09T06:42:07.859Z,987.95
2018-10-09T06:43:07.817Z,987.97
2018-10-09T06:44:07.781Z,988.04
2018-10-09T06:45:07.740Z,988.07
2018-10-09T06:46:07.701Z,988.08
2018-10-09T06:47:07.661Z,988.12
2018-10-09T06:48:07.634Z,988.15
2018-10-09T06:49:07.588Z,988.20
2018-10-09T06:50:07.553Z,988.21
2018-10-09T06:51:07.514Z,988.22
2018-10-09T06:52:07.480Z,988.27
2018-10-09T06:53:07.435Z,988.25
2018-10-09T06:54:07.583Z,988.28
2018-10-09T06:55:07.354Z,988.28
2018-10-09T06:56:07.337Z,988.28
2018-10-09T06:57:07.282Z,988.30
2018-10-09T06:58:07.249Z,988.27
2018-10-09T06:59:07.230Z,988.33
2018-10-09T07:00:07.199Z,988.32
2018-10-09T07:01:07.129Z,988.37
2018-10-09T07:02:07.092Z,988.40
2018-10-09T07:03:07.056Z,988.41
2018-10-09T07:04:07.020Z,988.42
2018-10-09T07:05:06.981Z,988.41
2018-10-09T07:06:06.943Z,988.43
2018-10-09T07:07:06.897Z,988.42
2018-10-09T07:08:06.862Z,988.47
2018-10-09T07:09:06.825Z,988.48
2018-10-09T07:10:06.791Z,988.50
2018-10-09T07:11:06.827Z,988.49
2018-10-09T07:12:06.717Z,988.48
2018-10-09T07:13:06.679Z,988.48
2018-10-09T07:14:06.648Z,988.51
2018-10-09T07:15:06.600Z,988.52
2018-10-09T07:16:06.562Z,988.52
2018-10-09T07:17:06.568Z,988.56
2018-10-09T07:18:06.483Z,988.58
2018-10-09T07:19:06.449Z,988.60
2018-10-09T07:20:06.408Z,988.66
2018-10-09T07:21:06.377Z,988.67
2018-10-09T07:22:06.339Z,988.64
2018-10-09T07:23:06.299Z,988.70
2018-10-09T07:24:06.260Z,988.67
2018-10-09T07:25:06.222Z,988.68
2018-10-09T07:26:06.187Z,988.70
2018-10-09T07:27:06.145Z,988.72
2018-10-09T07:28:06.120Z,988.73
2018-10-09T07:29:06.071Z,988.73
2018-10-09T07:30:06.031Z,988.76
2018-10-09T07:31:05.996Z,988.79
2018-10-09T07:32:05.958Z,988.81
2018-10-09T07:33:05.925Z,988.77
2018-10-09T07:34:05.887Z,988.78
2018-10-09T07:35:05.849Z,988.81
2018-10-09T07:36:05.818Z,988.79
2018-10-09T07:37:05.775Z,988.80
2018-10-09T07:38:05.732Z,988.82
2018-10-09T07:39:05.693Z,988.82
2018-10-09T07:40:05.653Z,988.82
2018-10-09T07:41:05.619Z,988.88
2018-10-09T07:42:05.593Z,988.84
2018-10-09T07:43:05.552Z,988.87
2018-10-09T07:44:05.617Z,988.87
2018-10-09T07:45:05.470Z,988.87
2018-10-09T07:46:05.439Z,988.86
2018-10-09T07:47:05.398Z,988.91
2018-10-09T07:48:05.364Z,988.92
2018-10-09T07:49:05.325Z,988.91
2018-10-09T07:50:05.286Z,988.95
2018-10-09T07:51:05.248Z,988.95
2018-10-09T07:52:05.209Z,988.99
2018-10-09T07:53:05.176Z,988.99
2018-10-09T07:54:05.140Z,989.01
2018-10-09T07:55:05.101Z,989.07
2018-10-09T07:56:05.066Z,989.05
2018-10-09T07:57:05.028Z,989.08
2018-10-09T07:58:04.987Z,989.08
2018-10-09T07:59:04.947Z,989.08
2018-10-09T08:00:04.924Z,989.08
2018-10-09T08:01:04.878Z,989.08
2018-10-09T08:02:04.839Z,989.04
2018-10-09T08:03:04.802Z,989.06
2018-10-09T08:04:04.765Z,989.05
2018-10-09T08:05:04.730Z,989.02
2018-10-09T08:06:04.704Z,989.05
2018-10-09T08:07:04.660Z,989.04
2018-10-09T08:08:04.626Z,989.06
2018-10-09T08:09:04.587Z,989.05
2018-10-09T08:10:04.545Z,989.08
2018-10-09T08:11:04.510Z,989.11
2018-10-09T08:12:04.470Z,989.09
2018-10-09T08:13:04.443Z,989.09
2018-10-09T08:14:04.403Z,989.14
2018-10-09T08:15:04.367Z,989.11
2018-10-09T08:16:04.326Z,989.05
2018-10-09T08:17:04.335Z,989.10
2018-10-09T08:18:04.260Z,989.08
2018-10-09T08:19:04.220Z,989.08
2018-10-09T08:20:04.190Z,989.08
2018-10-09T08:21:04.145Z,989.04
2018-10-09T08:22:04.114Z,989.06
2018-10-09T08:23:04.067Z,989.08
2018-10-09T08:24:04.037Z,989.06
2018-10-09T08:25:04.003Z,989.08
2018-10-09T08:26:03.963Z,989.08
2018-10-09T08:27:03.929Z,989.11
2018-10-09T08:28:03.953Z,989.11
2018-10-09T08:29:03.859Z,989.13
2018-10-09T08:30:03.829Z,989.12
2018-10-09T08:31:03.790Z,989.12
2018-10-09T08:32:03.751Z,989.11
2018-10-09T08:33:03.716Z,989.13
2018-10-09T08:34:03.671Z,989.12
2018-10-09T08:35:03.633Z,989.16
2018-10-09T08:36:03.600Z,989.17
2018-10-09T08:37:03.598Z,989.15
2018-10-09T08:38:03.553Z,989.16
2018-10-09T08:39:03.499Z,989.15
2018-10-09T08:40:03.465Z,989.10
2018-10-09T08:41:03.424Z,989.08
2018-10-09T08:42:03.385Z,989.10
2018-10-09T08:43:03.348Z,989.12
2018-10-09T08:44:03.308Z,989.10
2018-10-09T08:45:03.273Z,989.12
2018-10-09T08:46:03.256Z,989.18
2018-10-09T08:47:03.210Z,989.13
2018-10-09T08:48:03.172Z,989.14
2018-10-09T08:49:03.134Z,989.16
2018-10-09T08:50:03.098Z,989.17
2018-10-09T08:51:03.069Z,989.16
2018-10-09T08:52:03.136Z,989.17
2018-10-09T08:53:02.999Z,989.19
2018-10-09T08:54:02.952Z,989.20
2018-10-09T08:55:02.916Z,989.17
2018-10-09T08:56:02.881Z,989.21
2018-10-09T08:57:02.860Z,989.24
2018-10-09T08:58:02.815Z,989.27
2018-10-09T08:59:02.783Z,989.25
2018-10-09T09:00:02.741Z,989.26
2018-10-09T09:01:02.706Z,989.34
2018-10-09T09:02:02.670Z,989.29
2018-10-09T09:03:02.629Z,989.29
2018-10-09T09:04:02.600Z,989.35
2018-10-09T09:05:02.564Z,989.32
2018-10-09T09:06:02.528Z,989.31
2018-10-09T09:07:02.488Z,989.27
2018-10-09T09:08:02.454Z,989.29
2018-10-09T09:09:02.419Z,989.30
2018-10-09T09:10:02.386Z,989.30
2018-10-09T09:11:02.356Z,989.27
2018-10-09T09:12:02.335Z,989.31
2018-10-09T09:13:02.279Z,989.30
2018-10-09T09:14:02.285Z,989.31
2018-10-09T09:15:02.206Z,989.32
2018-10-09T09:16:02.178Z,989.31
2018-10-09T09:17:02.140Z,989.28
2018-10-09T09:18:02.112Z,989.31
2018-10-09T09:19:02.073Z,989.31
2018-10-09T09:20:02.028Z,989.32
2018-10-09T09:21:02.084Z,989.28
2018-10-09T09:22:01.964Z,989.29
2018-10-09T09:23:01.934Z,989.32
2018-10-09T09:24:01.898Z,989.30
2018-10-09T09:25:01.858Z,989.26
2018-10-09T09:26:01.838Z,989.26
2018-10-09T09:27:01.884Z,989.24
2018-10-09T09:28:01.752Z,989.22
2018-10-09T09:29:01.719Z,989.23
2018-10-09T09:30:01.685Z,989.23
2018-10-09T09:31:01.646Z,989.24
2018-10-09T09:32:01.618Z,989.20
2018-10-09T09:33:01.640Z,989.21
2018-10-09T09:34:01.540Z,989.23
2018-10-09T09:35:01.505Z,989.18
2018-10-09T09:36:01.474Z,989.21
2018-10-09T09:37:01.448Z,989.23
2018-10-09T09:38:01.408Z,989.19
2018-10-09T09:39:01.378Z,989.19
2018-10-09T09:40:01.343Z,989.20
2018-10-09T09:41:01.291Z,989.20
2018-10-09T09:42:01.268Z,989.21
2018-10-09T09:43:01.227Z,989.22
2018-10-09T09:44:01.190Z,989.21
2018-10-09T09:45:01.159Z,989.19
2018-10-09T09:46:01.273Z,989.23
2018-10-09T09:47:01.090Z,989.20
2018-10-09T09:48:01.053Z,989.22
2018-10-09T09:49:01.021Z,989.21
2018-10-09T09:50:00.983Z,989.24
2018-10-09T09:51:00.943Z,989.20
2018-10-09T09:52:00.963Z,989.17
2018-10-09T09:53:00.873Z,989.21
2018-10-09T09:54:00.851Z,989.22
2018-10-09T09:55:00.809Z,989.24
2018-10-09T09:56:00.768Z,989.20
2018-10-09T09:57:00.743Z,989.17
2018-10-09T09:58:00.745Z,989.15
2018-10-09T09:59:00.754Z,989.15
2018-10-09T10:00:00.627Z,989.14
2018-10-09T10:01:00.592Z,989.17
2018-10-09T10:02:00.561Z,989.15
2018-10-09T10:03:00.524Z,989.17
2018-10-09T10:04:00.490Z,989.17
2018-10-09T10:05:00.455Z,989.18
2018-10-09T10:06:00.420Z,989.17
2018-10-09T10:07:00.382Z,989.20
2018-10-09T10:21:37.969Z,989.20
2018-10-09T10:22:37.884Z,989.21
2018-10-09T10:23:37.848Z,989.20
2018-10-09T10:24:37.809Z,989.22
2018-10-09T10:25:37.769Z,989.21
2018-10-09T10:26:37.731Z,989.23
2018-10-09T10:27:37.688Z,989.20
2018-10-09T10:28:37.652Z,989.21
2018-10-09T10:29:37.615Z,989.15
2018-10-09T10:30:37.580Z,989.16
2018-10-09T10:31:37.551Z,989.20
2018-10-09T10:32:37.513Z,989.14
2018-10-09T10:33:37.471Z,989.15
2018-10-09T10:34:37.438Z,989.18
2018-10-09T10:35:37.445Z,989.17
2018-10-09T10:36:37.388Z,989.18
2018-10-09T10:37:37.331Z,989.18
2018-10-09T10:38:37.299Z,989.18
2018-10-09T10:39:37.260Z,989.17
2018-10-09T10:40:37.223Z,989.20
2018-10-09T10:41:37.189Z,989.16
2018-10-09T10:42:37.152Z,989.18
2018-10-09T10:43:37.123Z,989.20
2018-10-09T10:44:37.095Z,989.19
2018-10-09T10:45:37.055Z,989.15
2018-10-09T10:46:37.021Z,989.18
2018-10-09T10:47:36.984Z,989.17
2018-10-09T10:48:36.946Z,989.17
2018-10-09T10:49:36.916Z,989.16
2018-10-09T10:50:36.885Z,989.14
2018-10-09T10:51:36.844Z,989.16
2018-10-09T10:52:36.810Z,989.13
2018-10-09T10:53:36.774Z,989.14
2018-10-09T10:54:36.737Z,989.14
2018-10-09T10:55:36.709Z,989.14
2018-10-09T10:56:36.672Z,989.14
2018-10-09T10:57:36.638Z,989.12
2018-10-09T10:58:36.606Z,989.15
2018-10-09T10:59:36.570Z,989.16
2018-10-09T11:00:36.534Z,989.16
2018-10-09T11:01:36.523Z,989.14
2018-10-09T11:02:36.464Z,989.10
2018-10-09T11:03:36.437Z,989.12
2018-10-09T11:04:36.403Z,989.06
2018-10-09T11:05:36.370Z,989.08
2018-10-09T11:06:36.349Z,989.03
2018-10-09T11:07:36.306Z,989.04
2018-10-09T11:08:36.266Z,989.03
2018-10-09T11:09:36.234Z,989.00
2018-10-09T11:10:36.205Z,989.01
2018-10-09T11:11:36.165Z,989.06
2018-10-09T11:12:36.130Z,989.01
2018-10-09T11:13:36.095Z,989.02
2018-10-09T11:14:36.072Z,989.02
2018-10-09T11:15:36.033Z,989.00
2018-10-09T11:16:35.994Z,988.96
2018-10-09T11:17:35.972Z,988.96
2018-10-09T11:18:35.933Z,988.94
2018-10-09T11:19:35.891Z,988.92
2018-10-09T11:20:35.861Z,988.91
2018-10-09T11:21:35.839Z,988.93
2018-10-09T11:22:35.800Z,988.90
2018-10-09T11:23:35.759Z,988.91
2018-10-09T11:24:35.725Z,988.88
2018-10-09T11:25:35.698Z,988.88
2018-10-09T11:26:35.657Z,988.87
2018-10-09T11:27:35.630Z,988.85
2018-10-09T11:28:35.592Z,988.84
2018-10-09T11:29:35.569Z,988.77
2018-10-09T11:30:35.529Z,988.76
2018-10-09T11:31:35.489Z,988.77
2018-10-09T11:32:35.497Z,988.77
2018-10-09T11:33:35.428Z,988.75
2018-10-09T11:34:35.393Z,988.79
2018-10-09T11:35:35.365Z,988.73
2018-10-09T11:36:35.329Z,988.73
2018-10-09T11:37:35.294Z,988.70
2018-10-09T11:38:35.266Z,988.69
2018-10-09T11:39:35.235Z,988.69
2018-10-09T11:40:35.194Z,988.64
2018-10-09T11:41:35.167Z,988.69
2018-10-09T11:42:35.166Z,988.63
2018-10-09T11:43:35.091Z,988.61
2018-10-09T11:44:35.062Z,988.60
2018-10-09T11:45:35.026Z,988.57
2018-10-09T11:46:34.992Z,988.57
2018-10-09T11:47:34.966Z,988.56
2018-10-09T11:48:34.928Z,988.54
2018-10-09T11:49:34.904Z,988.54
2018-10-09T11:50:34.872Z,988.52
2018-10-09T11:51:34.827Z,988.53
2018-10-09T11:52:34.795Z,988.52
2018-10-09T11:53:34.764Z,988.53
2018-10-09T11:54:34.760Z,988.47
2018-10-09T11:55:34.695Z,988.44
2018-10-09T11:56:34.664Z,988.44
2018-10-09T11:57:34.634Z,988.40
2018-10-09T11:58:34.638Z,988.43
2018-10-09T11:59:34.570Z,988.42
2018-10-09T12:00:34.532Z,988.43
2018-10-09T12:01:34.500Z,988.45
2018-10-09T12:02:34.470Z,988.42
2018-10-09T12:03:34.432Z,988.43
2018-10-09T12:04:34.397Z,988.39
2018-10-09T12:05:34.416Z,988.39
2018-10-09T12:06:34.339Z,988.44
2018-10-09T12:07:34.310Z,988.42
2018-10-09T12:08:34.269Z,988.40
2018-10-09T12:09:34.233Z,988.41
2018-10-09T12:10:34.203Z,988.41
2018-10-09T12:11:34.173Z,988.42
2018-10-09T12:12:34.136Z,988.40
2018-10-09T12:13:34.110Z,988.41
2018-10-09T12:14:34.074Z,988.40
2018-10-09T12:15:34.035Z,988.34
2018-10-09T12:16:34.007Z,988.37
2018-10-09T12:17:33.971Z,988.38
2018-10-09T12:18:33.938Z,988.40
2018-10-09T12:19:33.920Z,988.39
2018-10-09T12:20:33.878Z,988.40
2018-10-09T12:21:33.949Z,988.41
2018-10-09T12:22:33.813Z,988.40
2018-10-09T12:23:33.794Z,988.41
2018-10-09T12:24:33.743Z,988.41
2018-10-09T12:25:33.712Z,988.42
2018-10-09T12:26:33.683Z,988.36
2018-10-09T12:27:33.644Z,988.37
2018-10-09T12:28:33.617Z,988.37
2018-10-09T12:29:33.580Z,988.34
2018-10-09T12:30:33.545Z,988.34
2018-10-09T12:31:33.521Z,988.31
2018-10-09T12:32:33.484Z,988.26
2018-10-09T12:33:33.455Z,988.25
2018-10-09T12:34:33.420Z,988.22
2018-10-09T12:35:33.382Z,988.21
2018-10-09T12:36:33.356Z,988.19
2018-10-09T12:37:33.318Z,988.18
2018-10-09T12:38:33.324Z,988.16
2018-10-09T12:39:33.258Z,988.16
2018-10-09T12:40:33.227Z,988.11
2018-10-09T12:41:33.189Z,988.10
2018-10-09T12:42:33.155Z,988.14
2018-10-09T12:43:33.128Z,988.11
2018-10-09T12:44:33.098Z,988.12
2018-10-09T12:45:33.063Z,988.13
2018-10-09T12:46:33.036Z,988.08
2018-10-09T12:47:32.995Z,988.08
2018-10-09T12:48:32.966Z,988.07
2018-10-09T12:49:32.929Z,988.11
2018-10-09T12:50:32.897Z,988.09
2018-10-09T12:51:32.868Z,988.09
2018-10-09T12:52:32.851Z,988.07
2018-10-09T12:53:32.805Z,988.10
2018-10-09T12:54:32.776Z,988.12
2018-10-09T12:55:32.737Z,988.13
2018-10-09T12:56:32.717Z,988.15
2018-10-09T12:57:32.684Z,988.14
2018-10-09T12:58:32.691Z,988.12
2018-10-09T12:59:32.613Z,988.11